createdAt,value
2017-12-04T00:00:27.368Z,3.88
2017-12-04T00:01:28.409Z,3.91
2017-12-04T00:03:21.929Z,3.90
2017-12-04T00:04:21.997Z,3.90
2017-12-04T00:06:14.313Z,3.93
2017-12-04T00:07:15.523Z,3.88
2017-12-04T00:09:09.044Z,3.88
2017-12-04T00:10:09.058Z,3.88
2017-12-04T00:12:16.394Z,3.91
2017-12-04T00:13:02.603Z,3.90
2017-12-04T00:14:56.106Z,3.93
2017-12-04T00:15:56.148Z,3.93
2017-12-04T00:17:48.800Z,3.90
2017-12-04T00:18:49.696Z,3.97
2017-12-04T00:20:49.674Z,3.91
2017-12-04T00:21:42.406Z,4.00
2017-12-04T00:23:37.419Z,3.97
2017-12-04T00:24:35.883Z,4.04
2017-12-04T00:26:29.500Z,3.98
2017-12-04T00:27:30.373Z,4.04
2017-12-04T00:29:23.017Z,3.96
2017-12-04T00:30:23.943Z,4.04
2017-12-04T00:32:17.493Z,4.04
2017-12-04T00:33:17.026Z,4.02
2017-12-04T00:35:10.203Z,4.08
2017-12-04T00:36:11.045Z,4.14
2017-12-04T00:38:02.515Z,4.05
2017-12-04T00:39:04.615Z,4.12
2017-12-04T00:40:57.305Z,4.12
2017-12-04T00:41:58.177Z,4.08
2017-12-04T00:43:51.102Z,4.15
2017-12-04T00:44:51.724Z,4.15
2017-12-04T00:46:44.093Z,4.15
2017-12-04T00:47:45.314Z,4.20
2017-12-04T00:49:38.882Z,4.20
2017-12-04T00:50:38.862Z,4.23
2017-12-04T00:52:31.578Z,4.23
2017-12-04T00:53:32.387Z,4.20
2017-12-04T00:55:25.856Z,4.26
2017-12-04T00:56:25.927Z,4.27
2017-12-04T00:58:22.129Z,4.23
2017-12-04T00:59:19.495Z,4.27
2017-12-04T01:01:13.077Z,4.30
2017-12-04T01:02:13.476Z,4.32
2017-12-04T01:04:05.573Z,4.24
2017-12-04T01:05:06.672Z,4.27
2017-12-04T01:07:00.158Z,4.23
2017-12-04T01:08:00.150Z,4.33
2017-12-04T01:09:52.819Z,4.37
2017-12-04T01:10:52.991Z,4.34
2017-12-04T01:12:44.399Z,4.37
2017-12-04T01:13:47.253Z,4.18
2017-12-04T01:15:39.030Z,4.30
2017-12-04T01:16:40.433Z,4.30
2017-12-04T01:18:36.227Z,4.34
2017-12-04T01:19:34.379Z,4.30
2017-12-04T01:21:27.049Z,4.34
2017-12-04T01:22:27.937Z,4.40
2017-12-04T01:24:25.500Z,4.37
2017-12-04T01:25:21.581Z,4.37
2017-12-04T01:27:14.408Z,4.34
2017-12-04T01:28:15.060Z,4.30
2017-12-04T01:30:07.390Z,4.32
2017-12-04T01:31:08.637Z,4.33
2017-12-04T01:33:01.274Z,4.34
2017-12-04T01:34:01.241Z,4.33
2017-12-04T01:35:54.886Z,4.40
2017-12-04T01:36:55.756Z,4.37
2017-12-04T01:38:49.313Z,4.41
2017-12-04T01:39:49.268Z,4.33
2017-12-04T01:41:41.911Z,4.36
2017-12-04T01:42:42.860Z,4.42
2017-12-04T01:44:35.255Z,4.37
2017-12-04T01:45:36.274Z,4.40
2017-12-04T01:47:29.094Z,4.41
2017-12-04T01:48:29.976Z,4.41
2017-12-04T01:50:21.936Z,4.45
2017-12-04T01:51:23.572Z,4.37
2017-12-04T01:53:16.012Z,4.42
2017-12-04T01:54:17.045Z,4.36
2017-12-04T01:56:10.601Z,4.37
2017-12-04T01:57:09.652Z,4.42
2017-12-04T01:59:03.329Z,4.44
2017-12-04T02:00:04.044Z,4.37
2017-12-04T02:01:57.734Z,4.47
2017-12-04T02:02:56.840Z,4.52
2017-12-04T02:04:50.204Z,4.41
2017-12-04T02:05:51.279Z,4.41
2017-12-04T02:07:41.977Z,4.51
2017-12-04T02:08:44.870Z,4.50
2017-12-04T02:10:37.370Z,4.41
2017-12-04T02:11:38.418Z,4.40
2017-12-04T02:13:31.950Z,4.48
2017-12-04T02:14:32.001Z,4.48
2017-12-04T02:16:24.445Z,4.51
2017-12-04T02:17:24.538Z,4.58
2017-12-04T02:19:18.970Z,4.54
2017-12-04T02:20:19.129Z,4.55
2017-12-04T02:22:11.558Z,4.60
2017-12-04T02:23:11.669Z,4.59
2017-12-04T02:25:03.275Z,4.59
2017-12-04T02:26:06.241Z,4.55
2017-12-04T02:28:00.310Z,4.60
2017-12-04T02:28:59.716Z,4.54
2017-12-04T02:30:52.230Z,4.55
2017-12-04T02:31:53.299Z,4.59
2017-12-04T02:33:46.872Z,4.59
2017-12-04T02:34:46.761Z,4.58
2017-12-04T02:36:39.326Z,4.59
2017-12-04T02:37:40.388Z,4.63
2017-12-04T02:39:33.942Z,4.58
2017-12-04T02:40:33.118Z,4.65
2017-12-04T02:42:24.843Z,4.67
2017-12-04T02:43:27.529Z,4.65
2017-12-04T02:45:20.988Z,4.70
2017-12-04T02:46:21.952Z,4.69
2017-12-04T02:48:13.596Z,4.69
2017-12-04T02:49:13.717Z,4.69
2017-12-04T02:51:08.234Z,4.67
2017-12-04T02:52:08.252Z,4.69
2017-12-04T02:54:00.657Z,4.70
2017-12-04T02:55:01.794Z,4.62
2017-12-04T02:56:55.316Z,4.70
2017-12-04T02:57:55.269Z,4.72
2017-12-04T02:59:46.057Z,4.70
2017-12-04T03:00:48.916Z,4.70
2017-12-04T03:02:41.261Z,4.72
2017-12-04T03:03:41.488Z,4.73
2017-12-04T03:05:35.052Z,4.73
2017-12-04T03:06:35.967Z,4.75
2017-12-04T03:08:30.457Z,4.75
2017-12-04T03:09:28.555Z,4.69
2017-12-04T03:11:22.200Z,4.70
2017-12-04T03:12:22.809Z,4.70
2017-12-04T03:14:15.369Z,4.70
2017-12-04T03:15:16.710Z,4.67
2017-12-04T03:17:09.098Z,4.78
2017-12-04T03:18:10.185Z,4.80
2017-12-04T03:20:03.738Z,4.75
2017-12-04T03:21:03.740Z,4.78
2017-12-04T03:22:56.491Z,4.80
2017-12-04T03:23:57.274Z,4.84
2017-12-04T03:25:50.439Z,4.80
2017-12-04T03:26:50.889Z,4.85
2017-12-04T03:28:44.429Z,4.82
2017-12-04T03:29:41.773Z,4.82
2017-12-04T03:31:36.961Z,4.82
2017-12-04T03:32:37.970Z,4.86
2017-12-04T03:34:31.601Z,4.86
2017-12-04T03:35:30.623Z,4.85
2017-12-04T03:37:24.074Z,4.82
2017-12-04T03:38:24.262Z,4.86
2017-12-04T03:40:18.633Z,4.86
2017-12-04T03:41:18.634Z,4.86
2017-12-04T03:43:12.761Z,4.84
2017-12-04T03:44:10.415Z,4.82
2017-12-04T03:46:05.557Z,4.80
2017-12-04T03:47:03.115Z,4.78
2017-12-04T03:48:58.423Z,4.82
2017-12-04T03:49:59.344Z,4.82
2017-12-04T03:51:52.897Z,4.82
2017-12-04T03:52:52.860Z,4.80
2017-12-04T03:54:45.501Z,4.84
2017-12-04T03:55:46.430Z,4.78
2017-12-04T03:57:38.335Z,4.88
2017-12-04T03:58:39.990Z,4.80
2017-12-04T04:00:30.686Z,4.84
2017-12-04T04:01:32.747Z,4.82
2017-12-04T04:03:26.207Z,4.82
2017-12-04T04:04:27.076Z,4.86
2017-12-04T04:06:17.856Z,4.72
2017-12-04T04:07:20.659Z,4.80
2017-12-04T04:09:12.929Z,4.69
2017-12-04T04:10:13.306Z,4.77
2017-12-04T04:12:06.886Z,4.84
2017-12-04T04:13:07.791Z,4.82
2017-12-04T04:14:58.409Z,4.85
2017-12-04T04:16:01.348Z,4.84
2017-12-04T04:17:53.910Z,4.91
2017-12-04T04:18:54.856Z,4.89
2017-12-04T04:20:48.453Z,4.88
2017-12-04T04:21:48.412Z,4.86
2017-12-04T04:23:41.126Z,4.85
2017-12-04T04:24:41.999Z,4.88
2017-12-04T04:26:35.514Z,4.96
2017-12-04T04:27:35.580Z,4.88
2017-12-04T04:29:28.208Z,4.91
2017-12-04T04:30:29.085Z,4.88
2017-12-04T04:32:21.567Z,4.88
2017-12-04T04:33:22.704Z,4.91
2017-12-04T04:35:15.342Z,4.91
2017-12-04T04:36:16.199Z,4.94
2017-12-04T04:38:09.754Z,4.99
2017-12-04T04:39:08.868Z,4.92
2017-12-04T04:41:02.233Z,5.02
2017-12-04T04:42:03.308Z,4.96
2017-12-04T04:43:56.074Z,5.02
2017-12-04T04:44:56.907Z,4.97
2017-12-04T04:46:47.524Z,5.02
2017-12-04T04:47:50.567Z,5.00
2017-12-04T04:49:45.492Z,5.04
2017-12-04T04:50:44.024Z,5.07
2017-12-04T04:52:37.529Z,5.07
2017-12-04T04:53:37.540Z,4.97
2017-12-04T04:55:30.202Z,5.04
2017-12-04T04:56:31.086Z,5.09
2017-12-04T04:58:24.645Z,5.09
2017-12-04T04:59:24.644Z,5.02
2017-12-04T05:01:17.151Z,5.12
2017-12-04T05:02:18.203Z,5.09
2017-12-04T05:04:11.318Z,5.13
2017-12-04T05:05:11.795Z,5.15
2017-12-04T05:07:04.453Z,5.22
2017-12-04T05:08:05.324Z,5.13
2017-12-04T05:09:58.873Z,5.22
2017-12-04T05:10:58.908Z,5.17
2017-12-04T05:12:51.564Z,5.18
2017-12-04T05:13:53.306Z,5.24
2017-12-04T05:15:45.998Z,5.18
2017-12-04T05:16:45.982Z,5.21
2017-12-04T05:18:38.680Z,5.17
2017-12-04T05:19:39.590Z,5.25
2017-12-04T05:21:31.927Z,5.21
2017-12-04T05:22:33.111Z,5.18
2017-12-04T05:24:25.776Z,5.15
2017-12-04T05:25:26.664Z,5.25
2017-12-04T05:27:19.181Z,5.18
2017-12-04T05:28:20.222Z,5.13
2017-12-04T05:30:13.823Z,5.20
2017-12-04T05:31:13.786Z,5.27
2017-12-04T05:33:06.459Z,5.25
2017-12-04T05:34:07.335Z,5.28
2017-12-04T05:36:00.515Z,5.20
2017-12-04T05:37:00.907Z,5.27
2017-12-04T05:38:51.539Z,5.30
2017-12-04T05:39:54.447Z,5.24
2017-12-04T05:41:47.141Z,5.20
2017-12-04T05:42:48.069Z,5.28
2017-12-04T05:44:41.558Z,5.35
2017-12-04T05:45:41.585Z,5.30
2017-12-04T05:47:34.246Z,5.30
2017-12-04T05:48:35.114Z,5.36
2017-12-04T05:50:27.664Z,5.40
2017-12-04T05:51:28.716Z,5.36
2017-12-04T05:53:22.223Z,5.43
2017-12-04T05:54:22.256Z,5.42
2017-12-04T05:56:13.011Z,5.39
2017-12-04T05:57:15.839Z,5.38
2017-12-04T05:59:08.285Z,5.40
2017-12-04T06:00:09.352Z,5.35
2017-12-04T06:02:00.970Z,5.43
2017-12-04T06:03:02.891Z,5.35
2017-12-04T06:04:55.552Z,5.40
2017-12-04T06:05:56.509Z,5.40
2017-12-04T06:07:50.004Z,5.48
2017-12-04T06:08:50.047Z,5.38
2017-12-04T06:10:42.733Z,5.35
2017-12-04T06:11:43.525Z,5.31
2017-12-04T06:13:34.327Z,5.35
2017-12-04T06:14:37.157Z,5.36
2017-12-04T06:16:30.684Z,5.49
2017-12-04T06:17:30.757Z,5.39
2017-12-04T06:19:23.335Z,5.45
2017-12-04T06:20:24.275Z,5.43
2017-12-04T06:22:17.837Z,5.43
2017-12-04T06:23:17.864Z,5.48
2017-12-04T06:25:10.430Z,5.49
2017-12-04T06:26:11.348Z,5.51
2017-12-04T06:28:04.921Z,5.54
2017-12-04T06:29:04.022Z,5.54
2017-12-04T06:30:57.561Z,5.58
2017-12-04T06:31:58.456Z,5.54
2017-12-04T06:33:51.911Z,5.61
2017-12-04T06:34:52.018Z,5.61
2017-12-04T06:36:44.725Z,5.71
2017-12-04T06:37:45.623Z,5.63
2017-12-04T06:39:39.141Z,5.71
2017-12-04T06:40:39.137Z,5.71
2017-12-04T06:42:31.786Z,5.71
2017-12-04T06:43:30.750Z,5.75
2017-12-04T06:45:26.254Z,5.71
2017-12-04T06:46:26.245Z,5.68
2017-12-04T06:48:18.882Z,5.72
2017-12-04T06:49:19.787Z,5.68
2017-12-04T06:51:13.350Z,5.72
2017-12-04T06:52:13.343Z,5.76
2017-12-04T06:54:05.835Z,5.82
2017-12-04T06:55:06.910Z,5.82
2017-12-04T06:57:00.491Z,5.82
2017-12-04T06:58:00.472Z,5.72
2017-12-04T06:59:52.956Z,5.83
2017-12-04T07:00:54.102Z,5.83
2017-12-04T07:02:47.437Z,5.86
2017-12-04T07:03:47.622Z,5.75
2017-12-04T07:05:40.325Z,5.97
2017-12-04T07:06:41.147Z,5.83
2017-12-04T07:08:34.610Z,5.85
2017-12-04T07:09:34.698Z,5.86
2017-12-04T07:11:27.368Z,5.82
2017-12-04T07:12:28.284Z,5.82
2017-12-04T07:14:20.747Z,5.83
2017-12-04T07:15:21.809Z,5.86
2017-12-04T07:17:15.403Z,5.93
2017-12-04T07:18:12.704Z,5.83
2017-12-04T07:20:08.031Z,5.89
2017-12-04T07:21:08.962Z,5.86
2017-12-04T07:23:01.599Z,5.86
2017-12-04T07:24:02.480Z,5.90
2017-12-04T07:25:56.080Z,6.01
2017-12-04T07:26:56.071Z,5.89
2017-12-04T07:28:48.550Z,5.91
2017-12-04T07:29:49.630Z,5.89
2017-12-04T07:31:43.188Z,5.82
2017-12-04T07:32:43.198Z,5.90
2017-12-04T07:34:35.849Z,6.01
2017-12-04T07:35:34.713Z,5.96
2017-12-04T07:37:30.346Z,5.85
2017-12-04T07:38:30.309Z,5.93
2017-12-04T07:40:22.772Z,5.86
2017-12-04T07:41:23.861Z,5.81
2017-12-04T07:43:16.470Z,5.90
2017-12-04T07:44:17.441Z,5.81
2017-12-04T07:46:10.088Z,5.96
2017-12-04T07:47:10.324Z,5.90
2017-12-04T07:49:03.659Z,6.01
2017-12-04T07:50:04.483Z,5.86
2017-12-04T07:51:57.185Z,5.91
2017-12-04T07:52:56.258Z,5.90
2017-12-04T07:54:50.537Z,5.97
2017-12-04T07:55:51.601Z,5.89
2017-12-04T07:57:44.274Z,5.90
2017-12-04T07:58:45.170Z,5.96
2017-12-04T08:00:38.764Z,5.97
2017-12-04T08:01:38.724Z,6.00
2017-12-04T08:03:31.256Z,5.99
2017-12-04T08:04:31.433Z,5.94
2017-12-04T08:06:25.928Z,6.01
2017-12-04T08:07:25.882Z,6.06
2017-12-04T08:09:19.982Z,6.01
2017-12-04T08:10:19.413Z,6.06
2017-12-04T08:12:11.949Z,6.08
2017-12-04T08:13:12.998Z,6.18
2017-12-04T08:15:06.514Z,6.17
2017-12-04T08:16:06.533Z,6.14
2017-12-04T08:17:59.023Z,6.15
2017-12-04T08:19:00.224Z,6.18
2017-12-04T08:20:53.638Z,6.18
2017-12-04T08:21:53.625Z,6.21
2017-12-04T08:23:46.103Z,6.17
2017-12-04T08:24:47.220Z,6.22
2017-12-04T08:26:39.640Z,6.21
2017-12-04T08:27:40.738Z,6.14
2017-12-04T08:29:34.267Z,6.21
2017-12-04T08:30:34.288Z,6.30
2017-12-04T08:32:25.656Z,6.30
2017-12-04T08:33:27.894Z,6.30
2017-12-04T08:35:20.427Z,6.28
2017-12-04T08:36:20.757Z,6.27
2017-12-04T08:38:13.419Z,6.27
2017-12-04T08:39:14.970Z,6.31
2017-12-04T08:41:07.670Z,6.22
2017-12-04T08:42:08.522Z,6.21
2017-12-04T08:44:02.119Z,6.25
2017-12-04T08:45:02.080Z,6.25
2017-12-04T08:46:54.508Z,6.25
2017-12-04T08:48:01.463Z,6.25
2017-12-04T08:49:47.381Z,6.25
2017-12-04T08:50:49.200Z,6.25
2017-12-04T08:52:42.761Z,6.27
2017-12-04T08:53:42.792Z,6.19
2017-12-04T08:55:35.258Z,6.30
2017-12-04T08:56:36.314Z,6.31
2017-12-04T08:58:29.717Z,6.22
2017-12-04T08:59:29.944Z,6.30
2017-12-04T09:01:22.544Z,6.25
2017-12-04T09:02:23.465Z,6.22
2017-12-04T09:04:17.019Z,6.27
2017-12-04T09:05:14.373Z,6.22
2017-12-04T09:07:09.664Z,6.30
2017-12-04T09:08:10.584Z,6.36
2017-12-04T09:10:03.234Z,6.38
2017-12-04T09:11:03.413Z,6.28
2017-12-04T09:12:56.777Z,6.41
2017-12-04T09:13:57.696Z,6.40
2017-12-04T09:15:51.285Z,6.40
2017-12-04T09:16:51.244Z,6.41
2017-12-04T09:18:43.860Z,6.49
2017-12-04T09:19:44.805Z,6.54
2017-12-04T09:21:38.360Z,6.52
2017-12-04T09:22:37.770Z,6.56
2017-12-04T09:24:30.993Z,6.52
2017-12-04T09:25:31.925Z,6.58
2017-12-04T09:27:24.567Z,6.56
2017-12-04T09:28:25.432Z,6.66
2017-12-04T09:30:18.117Z,6.61
2017-12-04T09:31:19.041Z,6.67
2017-12-04T09:33:11.420Z,6.66
2017-12-04T09:34:12.599Z,6.71
2017-12-04T09:36:05.323Z,6.76
2017-12-04T09:37:06.157Z,6.69
2017-12-04T09:38:59.714Z,6.79
2017-12-04T09:39:57.068Z,6.74
2017-12-04T09:41:52.207Z,6.79
2017-12-04T09:42:53.310Z,6.79
2017-12-04T09:44:46.806Z,6.95
2017-12-04T09:45:46.862Z,6.87
2017-12-04T09:47:40.970Z,7.09
2017-12-04T09:48:40.349Z,7.07
2017-12-04T09:50:33.937Z,7.12
2017-12-04T09:51:33.995Z,7.09
2017-12-04T09:53:26.686Z,7.06
2017-12-04T09:54:27.507Z,6.98
2017-12-04T09:56:21.013Z,7.06
2017-12-04T09:57:19.017Z,7.09
2017-12-04T09:59:13.709Z,7.15
2017-12-04T10:00:14.622Z,7.13
2017-12-04T10:02:08.179Z,7.10
2017-12-04T10:03:08.139Z,7.09
2017-12-04T10:05:00.650Z,7.10
2017-12-04T10:06:01.755Z,7.05
2017-12-04T10:07:54.385Z,7.06
2017-12-04T10:08:55.469Z,7.15
2017-12-04T10:10:48.845Z,7.12
2017-12-04T10:11:48.015Z,7.09
2017-12-04T10:13:41.338Z,7.13
2017-12-04T10:14:42.414Z,7.13
2017-12-04T10:16:35.826Z,7.24
2017-12-04T10:17:35.984Z,7.27
2017-12-04T10:19:26.666Z,7.35
2017-12-04T10:20:29.537Z,7.27
2017-12-04T10:22:20.263Z,7.32
2017-12-04T10:23:23.044Z,7.37
2017-12-04T10:25:15.615Z,7.28
2017-12-04T10:26:16.612Z,7.27
2017-12-04T10:28:09.268Z,7.24
2017-12-04T10:29:10.211Z,7.28
2017-12-04T10:31:02.807Z,7.32
2017-12-04T10:32:03.771Z,7.30
2017-12-04T10:33:57.314Z,7.31
2017-12-04T10:34:57.302Z,7.28
2017-12-04T10:36:51.425Z,7.24
2017-12-04T10:37:51.318Z,7.39
2017-12-04T10:39:41.546Z,7.34
2017-12-04T10:40:44.440Z,7.31
2017-12-04T10:42:36.905Z,7.28
2017-12-04T10:43:37.965Z,7.31
2017-12-04T10:45:30.630Z,7.25
2017-12-04T10:46:31.519Z,7.31
2017-12-04T10:48:24.197Z,7.31
2017-12-04T10:49:25.079Z,7.27
2017-12-04T10:51:17.741Z,7.28
2017-12-04T10:52:17.892Z,7.30
2017-12-04T10:54:12.120Z,7.31
2017-12-04T10:55:12.193Z,7.25
2017-12-04T10:57:03.052Z,7.28
2017-12-04T10:58:05.792Z,7.25
2017-12-04T10:59:58.467Z,7.25
2017-12-04T11:00:57.721Z,7.25
2017-12-04T11:02:52.870Z,7.20
2017-12-04T11:03:52.873Z,7.17
2017-12-04T11:05:48.922Z,7.13
2017-12-04T11:06:46.425Z,7.16
2017-12-04T11:08:39.068Z,7.12
2017-12-04T11:09:39.042Z,7.17
2017-12-04T11:11:33.573Z,7.10
2017-12-04T11:12:32.573Z,7.17
2017-12-04T11:14:26.026Z,7.09
2017-12-04T11:15:28.004Z,7.10
2017-12-04T11:17:20.836Z,7.25
2017-12-04T11:18:20.726Z,7.17
2017-12-04T11:20:13.362Z,7.16
2017-12-04T11:21:14.254Z,7.03
2017-12-04T11:23:07.817Z,7.13
2017-12-04T11:24:07.857Z,7.09
2017-12-04T11:26:00.523Z,7.07
2017-12-04T11:26:58.823Z,7.07
2017-12-04T11:28:55.169Z,7.17
2017-12-04T11:29:54.914Z,7.06
2017-12-04T11:31:48.926Z,7.10
2017-12-04T11:32:48.487Z,7.02
2017-12-04T11:34:41.836Z,7.05
2017-12-04T11:35:42.081Z,7.06
2017-12-04T11:37:34.684Z,7.07
2017-12-04T11:39:48.905Z,7.05
2017-12-04T11:42:01.475Z,7.15
2017-12-04T11:43:01.920Z,7.13
2017-12-04T11:44:55.924Z,7.21
2017-12-04T11:45:55.942Z,7.27
2017-12-04T11:47:48.466Z,7.16
2017-12-04T11:50:02.942Z,7.25
2017-12-04T11:51:02.932Z,7.27
2017-12-04T11:52:55.533Z,7.24
2017-12-04T11:55:08.764Z,7.28
2017-12-04T11:56:09.883Z,7.16
2017-12-04T11:58:07.859Z,7.20
2017-12-04T11:59:03.447Z,7.27
2017-12-04T12:00:56.931Z,7.16
2017-12-04T12:03:31.256Z,7.24
2017-12-04T12:05:03.709Z,7.17
2017-12-04T12:06:03.720Z,7.17
2017-12-04T12:07:56.649Z,7.17
2017-12-04T12:08:57.280Z,7.16
2017-12-04T12:10:50.866Z,7.16
2017-12-04T12:11:50.834Z,7.17
2017-12-04T12:13:43.504Z,7.23
2017-12-04T12:14:44.400Z,7.21
2017-12-04T12:16:37.938Z,7.23
2017-12-04T12:17:37.949Z,7.30
2017-12-04T12:19:30.488Z,7.28
2017-12-04T12:20:30.605Z,7.35
2017-12-04T12:22:24.193Z,7.25
2017-12-04T12:23:25.193Z,7.28
2017-12-04T12:25:18.677Z,7.31
2017-12-04T12:26:18.709Z,7.28
2017-12-04T12:28:11.455Z,7.28
2017-12-04T12:29:12.239Z,7.27
2017-12-04T12:31:05.758Z,7.32
2017-12-04T12:32:05.746Z,7.21
2017-12-04T12:33:58.308Z,7.24
2017-12-04T12:34:59.365Z,7.37
2017-12-04T12:36:50.890Z,7.24
2017-12-04T12:37:52.889Z,7.25
2017-12-04T12:39:45.569Z,7.15
2017-12-04T12:40:46.477Z,7.16
2017-12-04T12:42:59.956Z,7.16
2017-12-04T12:44:33.123Z,7.17
2017-12-04T12:45:33.347Z,7.16
2017-12-04T12:47:26.003Z,7.09
2017-12-04T12:48:26.844Z,7.12
2017-12-04T12:50:20.388Z,7.13
2017-12-04T12:51:19.911Z,7.06
2017-12-04T12:53:12.898Z,7.06
2017-12-04T12:54:11.340Z,7.05
2017-12-04T12:56:07.528Z,7.12
2017-12-04T12:57:07.569Z,7.09
2017-12-04T12:59:03.789Z,7.15
2017-12-04T13:00:01.104Z,7.09
2017-12-04T13:01:58.653Z,7.09
2017-12-04T13:02:55.614Z,7.10
2017-12-04T13:04:46.062Z,7.17
2017-12-04T13:05:48.296Z,7.13
2017-12-04T13:07:41.818Z,7.31
2017-12-04T13:08:41.753Z,7.28
2017-12-04T13:10:34.403Z,7.30
2017-12-04T13:11:35.324Z,7.24
2017-12-04T13:13:27.953Z,7.25
2017-12-04T13:15:42.309Z,7.30
2017-12-04T13:16:42.319Z,7.31
2017-12-04T13:18:54.115Z,7.34
2017-12-04T13:19:35.037Z,7.34
2017-12-04T13:21:43.750Z,7.31
2017-12-04T13:22:29.413Z,7.30
2017-12-04T13:24:38.270Z,7.17
2017-12-04T13:25:22.963Z,7.30
2017-12-04T13:27:14.327Z,7.30
2017-12-04T13:28:16.543Z,7.37
2017-12-04T13:30:10.097Z,7.40
2017-12-04T13:31:09.249Z,7.48
2017-12-04T13:34:34.487Z,7.50
2017-12-04T13:37:09.252Z,7.49
2017-12-04T13:41:47.691Z,7.68
2017-12-04T13:42:46.875Z,7.74
2017-12-04T13:44:40.425Z,7.55
2017-12-04T13:45:40.423Z,7.61
2017-12-04T13:47:31.167Z,7.63
2017-12-04T13:48:33.986Z,7.55
2017-12-04T13:50:25.198Z,7.58
2017-12-04T13:51:27.546Z,7.55
2017-12-04T13:53:21.197Z,7.61
2017-12-04T13:54:21.139Z,7.67
2017-12-04T13:56:16.980Z,7.63
2017-12-04T13:57:14.550Z,7.57
2017-12-04T13:59:07.349Z,7.50
2017-12-04T14:00:09.165Z,7.53
2017-12-04T14:01:59.358Z,7.53
2017-12-04T14:04:15.178Z,7.49
2017-12-04T14:05:15.222Z,7.46
2017-12-04T14:07:07.928Z,7.45
2017-12-04T14:08:08.784Z,7.48
2017-12-04T14:10:01.675Z,7.52
2017-12-04T14:11:00.875Z,7.37
2017-12-04T14:12:56.043Z,7.42
2017-12-04T14:13:54.404Z,7.43
2017-12-04T14:15:49.416Z,7.40
2017-12-04T14:16:49.528Z,7.37
2017-12-04T14:18:43.100Z,7.48
2017-12-04T14:19:43.054Z,7.46
2017-12-04T14:21:36.000Z,7.46
2017-12-04T14:22:36.608Z,7.39
2017-12-04T14:24:30.174Z,7.39
2017-12-04T14:25:30.329Z,7.39
2017-12-04T14:27:22.831Z,7.45
2017-12-04T14:28:23.787Z,7.40
2017-12-04T14:30:17.288Z,7.46
2017-12-04T14:31:17.296Z,7.46
2017-12-04T14:33:08.099Z,7.46
2017-12-04T14:34:09.895Z,7.46
2017-12-04T14:36:04.358Z,7.46
2017-12-04T14:37:04.433Z,7.39
2017-12-04T14:38:57.453Z,7.50
2017-12-04T14:39:58.078Z,7.43
2017-12-04T14:41:51.508Z,7.40
2017-12-04T14:42:51.587Z,7.37
2017-12-04T14:44:44.202Z,7.37
2017-12-04T14:45:45.237Z,7.34
2017-12-04T14:47:38.586Z,7.40
2017-12-04T14:48:38.607Z,7.40
2017-12-04T14:50:29.695Z,7.30
2017-12-04T14:51:32.269Z,7.40
2017-12-04T14:53:25.985Z,7.40
2017-12-04T14:54:25.776Z,7.35
2017-12-04T14:56:18.488Z,7.39
2017-12-04T14:57:19.299Z,7.39
2017-12-04T14:59:12.826Z,7.42
2017-12-04T15:00:12.840Z,7.30
2017-12-04T15:02:05.534Z,7.27
2017-12-04T15:03:06.401Z,7.34
2017-12-04T15:04:59.924Z,7.34
2017-12-04T15:05:58.306Z,7.25
2017-12-04T15:07:52.337Z,7.32
2017-12-04T15:10:06.932Z,7.25
2017-12-04T15:11:06.896Z,7.27
2017-12-04T15:12:57.795Z,7.28
2017-12-04T15:14:00.998Z,7.16
2017-12-04T15:15:53.127Z,7.25
2017-12-04T15:16:54.041Z,7.20
2017-12-04T15:18:47.544Z,7.25
2017-12-04T15:19:47.566Z,7.12
2017-12-04T15:21:40.025Z,7.09
2017-12-04T15:22:41.238Z,7.12
2017-12-04T15:24:34.696Z,6.99
2017-12-04T15:25:32.025Z,6.99
2017-12-04T15:27:25.385Z,6.95
2017-12-04T15:28:28.263Z,6.89
2017-12-04T15:30:24.796Z,6.89
2017-12-04T15:31:21.777Z,6.84
2017-12-04T15:33:15.158Z,6.79
2017-12-04T15:34:15.383Z,6.80
2017-12-04T15:36:08.886Z,6.81
2017-12-04T15:37:08.733Z,6.81
2017-12-04T15:39:02.295Z,6.81
2017-12-04T15:40:02.476Z,6.81
2017-12-04T15:41:56.682Z,6.67
2017-12-04T15:42:53.411Z,6.79
2017-12-04T15:44:49.599Z,6.74
2017-12-04T15:45:49.601Z,6.69
2017-12-04T15:47:42.335Z,6.64
2017-12-04T15:48:43.172Z,6.56
2017-12-04T15:50:36.739Z,6.52
2017-12-04T15:51:36.710Z,6.44
2017-12-04T15:53:29.348Z,6.46
2017-12-04T15:54:30.271Z,6.31
2017-12-04T15:56:22.845Z,6.36
2017-12-04T15:57:23.871Z,6.37
2017-12-04T15:59:17.201Z,6.37
2017-12-04T16:00:15.358Z,6.27
2017-12-04T16:02:10.341Z,6.18
2017-12-04T16:03:10.970Z,6.25
2017-12-04T16:05:08.181Z,6.18
2017-12-04T16:06:02.948Z,6.30
2017-12-04T16:07:58.042Z,6.22
2017-12-04T16:08:58.029Z,6.30
2017-12-04T16:10:50.773Z,6.30
2017-12-04T16:11:51.612Z,6.27
2017-12-04T16:13:43.906Z,6.31
2017-12-04T16:14:45.174Z,6.22
2017-12-04T16:16:38.657Z,6.30
2017-12-04T16:17:38.298Z,6.27
2017-12-04T16:19:31.358Z,6.37
2017-12-04T16:20:32.252Z,6.43
2017-12-04T16:22:24.962Z,6.44
2017-12-04T16:23:25.121Z,6.40
2017-12-04T16:25:18.521Z,6.40
2017-12-04T16:26:18.630Z,6.46
2017-12-04T16:28:11.867Z,6.48
2017-12-04T16:29:13.824Z,6.51
2017-12-04T16:31:03.687Z,6.44
2017-12-04T16:32:06.038Z,6.37
2017-12-04T16:33:59.119Z,6.43
2017-12-04T16:35:00.038Z,6.36
2017-12-04T16:36:53.526Z,6.34
2017-12-04T16:37:53.684Z,6.41
2017-12-04T16:39:46.210Z,6.46
2017-12-04T16:40:47.214Z,6.40
2017-12-04T16:42:40.743Z,6.54
2017-12-04T16:43:40.787Z,6.52
2017-12-04T16:45:33.412Z,6.66
2017-12-04T16:46:34.354Z,6.62
2017-12-04T16:48:27.946Z,6.51
2017-12-04T16:49:27.889Z,6.51
2017-12-04T16:51:22.015Z,6.61
2017-12-04T16:52:21.491Z,6.66
2017-12-04T16:54:15.024Z,6.66
2017-12-04T16:55:14.148Z,6.64
2017-12-04T16:57:07.695Z,6.62
2017-12-04T16:58:08.756Z,6.64
2017-12-04T17:00:01.409Z,6.64
2017-12-04T17:01:02.206Z,6.66
2017-12-04T17:02:54.789Z,6.59
2017-12-04T17:03:55.656Z,6.67
2017-12-04T17:05:56.346Z,6.64
2017-12-04T17:06:50.093Z,6.77
2017-12-04T17:08:42.246Z,6.67
2017-12-04T17:09:45.462Z,6.64
2017-12-04T17:11:36.285Z,6.71
2017-12-04T17:12:34.572Z,6.71
2017-12-04T17:14:29.166Z,6.64
2017-12-04T17:15:29.153Z,6.70
2017-12-04T17:17:23.279Z,6.71
2017-12-04T17:18:23.390Z,6.62
2017-12-04T17:20:17.582Z,6.67
2017-12-04T17:21:17.015Z,6.61
2017-12-04T17:23:10.508Z,6.64
2017-12-04T17:24:10.510Z,6.67
2017-12-04T17:26:16.868Z,6.61
2017-12-04T17:27:03.035Z,6.67
2017-12-04T17:28:57.646Z,6.64
2017-12-04T17:29:55.627Z,6.59
2017-12-04T17:31:50.320Z,6.58
2017-12-04T17:34:04.645Z,6.67
2017-12-04T17:35:04.576Z,6.76
2017-12-04T17:36:57.274Z,6.69
2017-12-04T17:38:03.833Z,6.84
2017-12-04T17:39:48.825Z,6.80
2017-12-04T17:40:51.688Z,6.81
2017-12-04T17:42:44.576Z,6.85
2017-12-04T17:43:45.294Z,6.79
2017-12-04T17:45:38.832Z,6.79
2017-12-04T17:46:38.806Z,6.80
2017-12-04T17:48:31.472Z,6.81
2017-12-04T17:49:32.401Z,6.80
2017-12-04T17:51:25.936Z,6.77
2017-12-04T17:52:25.962Z,6.81
2017-12-04T17:54:18.541Z,6.81
2017-12-04T17:55:19.534Z,6.85
2017-12-04T17:57:11.037Z,6.79
2017-12-04T17:58:13.119Z,6.85
2017-12-04T18:00:05.533Z,6.81
2017-12-04T18:01:04.839Z,6.84
2017-12-04T18:02:59.517Z,6.87
2017-12-04T18:04:00.143Z,6.80
2017-12-04T18:05:53.641Z,6.79
2017-12-04T18:06:53.742Z,6.95
2017-12-04T18:08:46.224Z,6.81
2017-12-04T18:09:45.269Z,6.87
2017-12-04T18:11:39.941Z,6.92
2017-12-04T18:12:40.849Z,6.87
2017-12-04T18:14:34.387Z,6.91
2017-12-04T18:15:34.379Z,6.87
2017-12-04T18:17:27.268Z,6.81
2017-12-04T18:18:27.939Z,6.87
2017-12-04T18:20:21.617Z,6.91
2017-12-04T18:21:21.529Z,6.99
2017-12-04T18:23:14.065Z,6.99
2017-12-04T18:24:14.279Z,7.05
2017-12-04T18:26:08.676Z,7.05
2017-12-04T18:27:05.949Z,6.98
2017-12-04T18:29:01.335Z,7.03
2017-12-04T18:30:02.172Z,7.05
2017-12-04T18:31:54.073Z,7.05
2017-12-04T18:32:55.739Z,7.13
2017-12-04T18:34:48.474Z,7.10
2017-12-04T18:35:49.311Z,7.09
2017-12-04T18:37:41.748Z,7.15
2017-12-04T18:38:42.842Z,7.15
2017-12-04T18:40:35.484Z,7.07
2017-12-04T18:41:36.559Z,7.06
2017-12-04T18:43:29.117Z,7.13
2017-12-04T18:44:29.952Z,7.13
2017-12-04T18:46:22.514Z,7.12
2017-12-04T18:47:23.508Z,7.13
2017-12-04T18:49:16.170Z,7.13
2017-12-04T18:50:17.078Z,7.03
2017-12-04T18:52:10.734Z,7.09
2017-12-04T18:54:23.022Z,7.02
2017-12-04T18:55:24.202Z,7.06
2017-12-04T18:57:17.548Z,7.03
2017-12-04T18:58:17.645Z,7.06
2017-12-04T19:00:10.072Z,7.07
2017-12-04T19:01:11.147Z,7.12
2017-12-04T19:03:03.852Z,7.07
2017-12-04T19:04:04.705Z,7.03
2017-12-04T19:05:58.262Z,7.17
2017-12-04T19:06:56.313Z,7.03
2017-12-04T19:08:50.941Z,7.15
2017-12-04T19:09:51.823Z,7.06
2017-12-04T19:11:45.329Z,7.10
2017-12-04T19:12:45.372Z,7.12
2017-12-04T19:14:38.041Z,7.06
2017-12-04T19:15:37.973Z,7.17
2017-12-04T19:17:32.498Z,7.15
2017-12-04T19:18:32.500Z,7.15
2017-12-04T19:20:25.088Z,7.16
2017-12-04T19:21:26.046Z,7.12
2017-12-04T19:23:19.698Z,7.09
2017-12-04T19:24:19.651Z,7.15
2017-12-04T19:26:12.347Z,7.20
2017-12-04T19:27:13.197Z,7.27
2017-12-04T19:29:06.608Z,7.16